Brighton, Colorado
Current Conditions -  °F | °C
As of 12:35 PM on Thursday 30 Oct 2014 (Local Time) from KEIK Reporting Station
Clear Clear  
Wind Chill: 60°   Ceiling: Unl
Heat Index: 60°   Visibility: 10mi
Dew Point: 24°   Wind: 3mph
Humidity: 25%   Direction: 120°ESE
Pressure: 30.35"   Gusts: NA
Location:  39.99°N, 104.81°W
Report Text: KEIK 301835Z AUTO 12003KT 10SM CLR 16/M04 A3035 RMK AO2 T01561045
Loading
Personal Weather Stations






























Interactive Weather Map
Tropical Storm Tracking
New forecast layout! Learn more

10-Day Weather Forecast

Advertisements
Track Severe Weather on mobile